sensor_id;sensor_type;location;lat;lon;timestamp;temperature;humidity
34766;DHT22;20984;43.508;1.504;2023-04-19T00:01:00;9.20;99.90
34766;DHT22;20984;43.508;1.504;2023-04-19T00:03:27;9.20;99.90
34766;DHT22;20984;43.508;1.504;2023-04-19T00:05:52;9.30;99.90
34766;DHT22;20984;43.508;1.504;2023-04-19T00:08:18;9.30;99.90
34766;DHT22;20984;43.508;1.504;2023-04-19T00:10:44;9.30;99.90
34766;DHT22;20984;43.508;1.504;2023-04-19T00:13:10;9.30;99.90
34766;DHT22;20984;43.508;1.504;2023-04-19T00:15:37;9.30;99.90
34766;DHT22;20984;43.508;1.504;2023-04-19T00:18:02;9.30;99.90
34766;DHT22;20984;43.508;1.504;2023-04-19T00:20:28;9.30;99.90
34766;DHT22;20984;43.508;1.504;2023-04-19T00:22:54;9.40;99.90
34766;DHT22;20984;43.508;1.504;2023-04-19T00:25:19;9.40;99.90
34766;DHT22;20984;43.508;1.504;2023-04-19T00:27:45;9.30;99.90
34766;DHT22;20984;43.508;1.504;2023-04-19T00:30:11;9.30;99.90
34766;DHT22;20984;43.508;1.504;2023-04-19T00:32:37;9.40;99.90
34766;DHT22;20984;43.508;1.504;2023-04-19T00:35:02;9.40;99.90
34766;DHT22;20984;43.508;1.504;2023-04-19T00:37:28;9.40;99.90
34766;DHT22;20984;43.508;1.504;2023-04-19T00:39:54;9.40;99.90
34766;DHT22;20984;43.508;1.504;2023-04-19T00:42:19;9.40;99.90
34766;DHT22;20984;43.508;1.504;2023-04-19T00:44:45;9.40;99.90
34766;DHT22;20984;43.508;1.504;2023-04-19T00:47:11;9.50;99.90
34766;DHT22;20984;43.508;1.504;2023-04-19T00:49:38;9.60;99.90
34766;DHT22;20984;43.508;1.504;2023-04-19T00:52:03;9.70;99.90
34766;DHT22;20984;43.508;1.504;2023-04-19T00:54:31;9.70;99.90
34766;DHT22;20984;43.508;1.504;2023-04-19T00:56:57;9.70;99.90
34766;DHT22;20984;43.508;1.504;2023-04-19T00:59:23;9.70;99.90
34766;DHT22;20984;43.508;1.504;2023-04-19T01:01:49;9.70;99.90
34766;DHT22;20984;43.508;1.504;2023-04-19T01:04:15;9.60;99.90
34766;DHT22;20984;43.508;1.504;2023-04-19T01:06:41;9.60;99.90
34766;DHT22;20984;43.508;1.504;2023-04-19T01:09:07;9.50;99.90
34766;DHT22;20984;43.508;1.504;2023-04-19T01:11:33;9.40;99.90
34766;DHT22;20984;43.508;1.504;2023-04-19T01:13:59;9.30;99.90
34766;DHT22;20984;43.508;1.504;2023-04-19T01:16:26;9.30;99.90
34766;DHT22;20984;43.508;1.504;2023-04-19T01:18:52;9.20;99.90
34766;DHT22;20984;43.508;1.504;2023-04-19T01:21:18;9.20;99.90
34766;DHT22;20984;43.508;1.504;2023-04-19T01:23:44;9.20;99.90
34766;DHT22;20984;43.508;1.504;2023-04-19T01:26:10;9.10;99.90
34766;DHT22;20984;43.508;1.504;2023-04-19T01:28:36;9.10;99.90
34766;DHT22;20984;43.508;1.504;2023-04-19T01:31:01;9.20;99.90
34766;DHT22;20984;43.508;1.504;2023-04-19T01:33:28;9.10;99.90
34766;DHT22;20984;43.508;1.504;2023-04-19T01:35:53;9.20;99.90
34766;DHT22;20984;43.508;1.504;2023-04-19T01:38:19;9.20;99.90
34766;DHT22;20984;43.508;1.504;2023-04-19T01:40:45;9.20;99.90
34766;DHT22;20984;43.508;1.504;2023-04-19T01:43:13;9.30;99.90
34766;DHT22;20984;43.508;1.504;2023-04-19T01:45:39;9.30;99.90
34766;DHT22;20984;43.508;1.504;2023-04-19T01:48:05;9.30;99.90
34766;DHT22;20984;43.508;1.504;2023-04-19T01:50:31;9.20;99.90
34766;DHT22;20984;43.508;1.504;2023-04-19T01:52:57;9.20;99.90
34766;DHT22;20984;43.508;1.504;2023-04-19T01:55:23;9.10;99.90
34766;DHT22;20984;43.508;1.504;2023-04-19T01:57:49;9.10;99.90
34766;DHT22;20984;43.508;1.504;2023-04-19T02:00:17;9.00;99.90
34766;DHT22;20984;43.508;1.504;2023-04-19T02:02:43;8.90;99.90
34766;DHT22;20984;43.508;1.504;2023-04-19T02:05:09;8.80;99.90
34766;DHT22;20984;43.508;1.504;2023-04-19T02:07:36;8.80;99.90
34766;DHT22;20984;43.508;1.504;2023-04-19T02:10:02;8.70;99.90
34766;DHT22;20984;43.508;1.504;2023-04-19T02:12:29;8.60;99.90
34766;DHT22;20984;43.508;1.504;2023-04-19T02:14:58;8.50;99.90
34766;DHT22;20984;43.508;1.504;2023-04-19T02:17:24;8.40;99.90
34766;DHT22;20984;43.508;1.504;2023-04-19T02:19:51;8.40;99.90
34766;DHT22;20984;43.508;1.504;2023-04-19T02:22:17;8.30;99.90
34766;DHT22;20984;43.508;1.504;2023-04-19T02:24:43;8.20;99.90
34766;DHT22;20984;43.508;1.504;2023-04-19T02:27:09;8.30;99.90
34766;DHT22;20984;43.508;1.504;2023-04-19T02:29:34;8.30;99.90
34766;DHT22;20984;43.508;1.504;2023-04-19T02:32:00;8.40;99.90
34766;DHT22;20984;43.508;1.504;2023-04-19T02:34:28;8.60;99.90
34766;DHT22;20984;43.508;1.504;2023-04-19T02:36:53;8.70;99.90
34766;DHT22;20984;43.508;1.504;2023-04-19T02:39:19;8.80;99.90
34766;DHT22;20984;43.508;1.504;2023-04-19T02:41:45;8.80;99.90
34766;DHT22;20984;43.508;1.504;2023-04-19T02:44:11;8.80;99.90
34766;DHT22;20984;43.508;1.504;2023-04-19T02:46:36;8.70;99.90
34766;DHT22;20984;43.508;1.504;2023-04-19T02:49:02;8.70;99.90
34766;DHT22;20984;43.508;1.504;2023-04-19T02:51:28;8.60;99.90
34766;DHT22;20984;43.508;1.504;2023-04-19T02:53:54;8.60;99.90
34766;DHT22;20984;43.508;1.504;2023-04-19T02:56:19;8.50;99.90
34766;DHT22;20984;43.508;1.504;2023-04-19T02:58:46;8.50;99.90
34766;DHT22;20984;43.508;1.504;2023-04-19T03:01:12;8.40;99.90
34766;DHT22;20984;43.508;1.504;2023-04-19T03:03:37;8.30;99.90
34766;DHT22;20984;43.508;1.504;2023-04-19T03:06:03;8.30;99.90
34766;DHT22;20984;43.508;1.504;2023-04-19T03:08:29;8.30;99.90
34766;DHT22;20984;43.508;1.504;2023-04-19T03:10:55;8.30;99.90
34766;DHT22;20984;43.508;1.504;2023-04-19T03:13:20;8.20;99.90
34766;DHT22;20984;43.508;1.504;2023-04-19T03:15:46;8.10;99.90
34766;DHT22;20984;43.508;1.504;2023-04-19T03:18:12;8.10;99.90
34766;DHT22;20984;43.508;1.504;2023-04-19T03:20:38;8.00;99.90
34766;DHT22;20984;43.508;1.504;2023-04-19T03:23:04;8.00;99.90
34766;DHT22;20984;43.508;1.504;2023-04-19T03:25:30;8.00;99.90
34766;DHT22;20984;43.508;1.504;2023-04-19T03:27:57;8.00;99.90
34766;DHT22;20984;43.508;1.504;2023-04-19T03:30:22;8.00;99.90
34766;DHT22;20984;43.508;1.504;2023-04-19T03:32:48;8.00;99.90
34766;DHT22;20984;43.508;1.504;2023-04-19T03:35:14;8.10;99.90
34766;DHT22;20984;43.508;1.504;2023-04-19T03:37:40;8.20;99.90
34766;DHT22;20984;43.508;1.504;2023-04-19T03:40:06;8.30;99.90
34766;DHT22;20984;43.508;1.504;2023-04-19T03:42:31;8.40;99.90
34766;DHT22;20984;43.508;1.504;2023-04-19T03:44:57;8.50;99.90
34766;DHT22;20984;43.508;1.504;2023-04-19T03:47:23;8.50;99.90
34766;DHT22;20984;43.508;1.504;2023-04-19T03:49:48;8.60;99.90
34766;DHT22;20984;43.508;1.504;2023-04-19T03:52:14;8.60;99.90
34766;DHT22;20984;43.508;1.504;2023-04-19T03:54:39;8.70;99.90
34766;DHT22;20984;43.508;1.504;2023-04-19T03:57:05;8.70;99.90
34766;DHT22;20984;43.508;1.504;2023-04-19T03:59:31;8.80;99.90
34766;DHT22;20984;43.508;1.504;2023-04-19T04:01:56;8.90;99.90
34766;DHT22;20984;43.508;1.504;2023-04-19T04:04:22;8.90;99.90
34766;DHT22;20984;43.508;1.504;2023-04-19T04:06:48;9.00;99.90
34766;DHT22;20984;43.508;1.504;2023-04-19T04:09:13;9.00;99.90
34766;DHT22;20984;43.508;1.504;2023-04-19T04:11:39;9.10;99.90
34766;DHT22;20984;43.508;1.504;2023-04-19T04:14:05;9.10;99.90
34766;DHT22;20984;43.508;1.504;2023-04-19T04:16:31;9.00;99.90
34766;DHT22;20984;43.508;1.504;2023-04-19T04:18:57;9.00;99.90
34766;DHT22;20984;43.508;1.504;2023-04-19T04:21:22;9.00;99.90
34766;DHT22;20984;43.508;1.504;2023-04-19T04:23:49;9.00;99.90
34766;DHT22;20984;43.508;1.504;2023-04-19T04:26:15;9.00;99.90
34766;DHT22;20984;43.508;1.504;2023-04-19T04:28:40;8.90;99.90
34766;DHT22;20984;43.508;1.504;2023-04-19T04:31:06;8.90;99.90
34766;DHT22;20984;43.508;1.504;2023-04-19T04:33:32;8.90;99.90
34766;DHT22;20984;43.508;1.504;2023-04-19T04:35:58;8.90;99.90
34766;DHT22;20984;43.508;1.504;2023-04-19T04:38:23;8.90;99.90
34766;DHT22;20984;43.508;1.504;2023-04-19T04:40:53;8.80;99.90
34766;DHT22;20984;43.508;1.504;2023-04-19T04:43:20;8.70;99.90
34766;DHT22;20984;43.508;1.504;2023-04-19T04:45:46;8.60;99.90
34766;DHT22;20984;43.508;1.504;2023-04-19T04:48:12;8.50;99.90
34766;DHT22;20984;43.508;1.504;2023-04-19T04:50:37;8.50;99.90
34766;DHT22;20984;43.508;1.504;2023-04-19T04:53:03;8.40;99.90
34766;DHT22;20984;43.508;1.504;2023-04-19T04:55:29;8.40;99.90
34766;DHT22;20984;43.508;1.504;2023-04-19T04:57:55;8.30;99.90
34766;DHT22;20984;43.508;1.504;2023-04-19T05:00:21;8.30;99.90
34766;DHT22;20984;43.508;1.504;2023-04-19T05:02:47;8.30;99.90
34766;DHT22;20984;43.508;1.504;2023-04-19T05:05:12;8.30;99.90
34766;DHT22;20984;43.508;1.504;2023-04-19T05:07:38;8.40;99.90
34766;DHT22;20984;43.508;1.504;2023-04-19T05:10:05;8.40;99.90
34766;DHT22;20984;43.508;1.504;2023-04-19T05:12:30;8.40;99.90
34766;DHT22;20984;43.508;1.504;2023-04-19T05:14:56;8.50;99.90
34766;DHT22;20984;43.508;1.504;2023-04-19T05:17:22;8.50;99.90
34766;DHT22;20984;43.508;1.504;2023-04-19T05:19:47;8.60;99.90
34766;DHT22;20984;43.508;1.504;2023-04-19T05:22:13;8.60;99.90
34766;DHT22;20984;43.508;1.504;2023-04-19T05:24:38;8.50;99.90
34766;DHT22;20984;43.508;1.504;2023-04-19T05:27:04;8.60;99.90
34766;DHT22;20984;43.508;1.504;2023-04-19T05:29:31;8.70;99.90
34766;DHT22;20984;43.508;1.504;2023-04-19T05:31:57;8.70;99.90
34766;DHT22;20984;43.508;1.504;2023-04-19T05:34:23;8.80;99.90
34766;DHT22;20984;43.508;1.504;2023-04-19T05:36:49;8.90;99.90
34766;DHT22;20984;43.508;1.504;2023-04-19T05:39:14;9.10;99.90
34766;DHT22;20984;43.508;1.504;2023-04-19T05:41:41;9.20;99.90
34766;DHT22;20984;43.508;1.504;2023-04-19T05:44:07;9.20;99.90
34766;DHT22;20984;43.508;1.504;2023-04-19T05:46:32;9.30;99.90
34766;DHT22;20984;43.508;1.504;2023-04-19T05:48:58;9.40;99.90
34766;DHT22;20984;43.508;1.504;2023-04-19T05:51:24;9.50;99.90
34766;DHT22;20984;43.508;1.504;2023-04-19T05:53:49;9.70;99.90
34766;DHT22;20984;43.508;1.504;2023-04-19T05:56:15;9.80;99.90
34766;DHT22;20984;43.508;1.504;2023-04-19T05:58:40;10.00;99.90
34766;DHT22;20984;43.508;1.504;2023-04-19T06:01:06;10.10;99.90
34766;DHT22;20984;43.508;1.504;2023-04-19T06:03:32;10.30;99.90
34766;DHT22;20984;43.508;1.504;2023-04-19T06:05:58;10.40;99.90
34766;DHT22;20984;43.508;1.504;2023-04-19T06:08:24;10.50;99.90
34766;DHT22;20984;43.508;1.504;2023-04-19T06:10:49;10.60;99.90
34766;DHT22;20984;43.508;1.504;2023-04-19T06:13:15;10.70;99.90
34766;DHT22;20984;43.508;1.504;2023-04-19T06:15:41;10.70;99.90
34766;DHT22;20984;43.508;1.504;2023-04-19T06:18:07;10.80;99.90
34766;DHT22;20984;43.508;1.504;2023-04-19T06:20:36;10.90;99.90
34766;DHT22;20984;43.508;1.504;2023-04-19T06:23:02;11.00;99.90
34766;DHT22;20984;43.508;1.504;2023-04-19T06:25:28;11.20;99.90
34766;DHT22;20984;43.508;1.504;2023-04-19T06:27:54;11.30;99.90
34766;DHT22;20984;43.508;1.504;2023-04-19T06:30:19;11.40;99.90
34766;DHT22;20984;43.508;1.504;2023-04-19T06:32:45;11.50;99.90
34766;DHT22;20984;43.508;1.504;2023-04-19T06:35:11;11.60;99.90
34766;DHT22;20984;43.508;1.504;2023-04-19T06:37:36;11.70;99.90
34766;DHT22;20984;43.508;1.504;2023-04-19T06:40:02;11.80;99.90
34766;DHT22;20984;43.508;1.504;2023-04-19T06:42:29;11.90;99.90
34766;DHT22;20984;43.508;1.504;2023-04-19T06:44:55;11.90;99.90
34766;DHT22;20984;43.508;1.504;2023-04-19T06:47:24;12.00;99.90
34766;DHT22;20984;43.508;1.504;2023-04-19T06:49:49;12.20;99.90
34766;DHT22;20984;43.508;1.504;2023-04-19T06:52:15;12.30;99.90
34766;DHT22;20984;43.508;1.504;2023-04-19T06:54:40;12.50;99.90
34766;DHT22;20984;43.508;1.504;2023-04-19T06:57:06;12.60;99.90
34766;DHT22;20984;43.508;1.504;2023-04-19T06:59:32;12.60;99.90
34766;DHT22;20984;43.508;1.504;2023-04-19T07:01:58;12.60;99.90
34766;DHT22;20984;43.508;1.504;2023-04-19T07:04:24;12.70;99.90
34766;DHT22;20984;43.508;1.504;2023-04-19T07:06:50;12.90;99.90
34766;DHT22;20984;43.508;1.504;2023-04-19T07:09:16;13.00;99.90
34766;DHT22;20984;43.508;1.504;2023-04-19T07:11:42;13.20;99.90
34766;DHT22;20984;43.508;1.504;2023-04-19T07:14:07;13.30;99.90
34766;DHT22;20984;43.508;1.504;2023-04-19T07:16:33;13.40;99.90
34766;DHT22;20984;43.508;1.504;2023-04-19T07:18:59;13.50;99.90
34766;DHT22;20984;43.508;1.504;2023-04-19T07:21:24;13.60;99.90
34766;DHT22;20984;43.508;1.504;2023-04-19T07:23:53;13.70;99.90
34766;DHT22;20984;43.508;1.504;2023-04-19T07:26:18;13.80;99.90
34766;DHT22;20984;43.508;1.504;2023-04-19T07:28:44;13.90;99.90
34766;DHT22;20984;43.508;1.504;2023-04-19T07:31:17;13.90;99.90
34766;DHT22;20984;43.508;1.504;2023-04-19T07:33:43;13.90;99.90
34766;DHT22;20984;43.508;1.504;2023-04-19T07:36:09;14.00;99.90
34766;DHT22;20984;43.508;1.504;2023-04-19T07:38:35;14.00;99.90
34766;DHT22;20984;43.508;1.504;2023-04-19T07:41:02;14.20;99.90
34766;DHT22;20984;43.508;1.504;2023-04-19T07:43:29;14.30;99.90
34766;DHT22;20984;43.508;1.504;2023-04-19T07:45:54;14.30;99.90
34766;DHT22;20984;43.508;1.504;2023-04-19T07:48:20;14.40;99.90
34766;DHT22;20984;43.508;1.504;2023-04-19T07:50:46;14.40;99.90
34766;DHT22;20984;43.508;1.504;2023-04-19T07:53:11;14.50;99.90
34766;DHT22;20984;43.508;1.504;2023-04-19T07:55:37;14.60;99.90
34766;DHT22;20984;43.508;1.504;2023-04-19T07:58:03;14.70;99.90
34766;DHT22;20984;43.508;1.504;2023-04-19T08:00:28;14.80;99.90
34766;DHT22;20984;43.508;1.504;2023-04-19T08:02:55;14.80;99.90
34766;DHT22;20984;43.508;1.504;2023-04-19T08:05:23;14.90;99.90
34766;DHT22;20984;43.508;1.504;2023-04-19T08:07:51;14.90;99.90
34766;DHT22;20984;43.508;1.504;2023-04-19T08:10:17;14.90;99.90
34766;DHT22;20984;43.508;1.504;2023-04-19T08:12:43;15.00;99.90
34766;DHT22;20984;43.508;1.504;2023-04-19T08:15:09;15.00;99.90
34766;DHT22;20984;43.508;1.504;2023-04-19T08:17:34;15.10;99.90
34766;DHT22;20984;43.508;1.504;2023-04-19T08:20:00;15.20;99.90
34766;DHT22;20984;43.508;1.504;2023-04-19T08:22:26;15.20;99.90
34766;DHT22;20984;43.508;1.504;2023-04-19T08:24:51;15.20;99.90
34766;DHT22;20984;43.508;1.504;2023-04-19T08:27:17;15.30;99.90
34766;DHT22;20984;43.508;1.504;2023-04-19T08:29:44;15.40;99.90
34766;DHT22;20984;43.508;1.504;2023-04-19T08:32:10;15.40;99.90
34766;DHT22;20984;43.508;1.504;2023-04-19T08:34:37;15.50;99.90
34766;DHT22;20984;43.508;1.504;2023-04-19T08:37:03;15.50;99.90
34766;DHT22;20984;43.508;1.504;2023-04-19T08:39:30;15.50;99.90
34766;DHT22;20984;43.508;1.504;2023-04-19T08:41:56;15.50;99.90
34766;DHT22;20984;43.508;1.504;2023-04-19T08:44:26;15.50;99.90
34766;DHT22;20984;43.508;1.504;2023-04-19T08:46:52;15.60;99.90
34766;DHT22;20984;43.508;1.504;2023-04-19T08:49:18;15.70;99.90
34766;DHT22;20984;43.508;1.504;2023-04-19T08:51:48;15.70;99.90
34766;DHT22;20984;43.508;1.504;2023-04-19T08:54:14;15.80;99.90
34766;DHT22;20984;43.508;1.504;2023-04-19T08:56:40;15.80;99.90
34766;DHT22;20984;43.508;1.504;2023-04-19T08:59:06;15.90;99.90
34766;DHT22;20984;43.508;1.504;2023-04-19T09:01:31;16.00;99.90
34766;DHT22;20984;43.508;1.504;2023-04-19T09:03:57;16.10;99.90
34766;DHT22;20984;43.508;1.504;2023-04-19T09:06:23;16.30;99.90
34766;DHT22;20984;43.508;1.504;2023-04-19T09:08:49;16.40;99.90
34766;DHT22;20984;43.508;1.504;2023-04-19T09:11:26;16.40;99.90
34766;DHT22;20984;43.508;1.504;2023-04-19T09:14:07;16.40;99.90
34766;DHT22;20984;43.508;1.504;2023-04-19T09:16:34;16.40;99.90
34766;DHT22;20984;43.508;1.504;2023-04-19T09:19:01;16.40;99.90
34766;DHT22;20984;43.508;1.504;2023-04-19T09:21:31;16.40;99.90
34766;DHT22;20984;43.508;1.504;2023-04-19T09:23:58;16.40;99.90
34766;DHT22;20984;43.508;1.504;2023-04-19T09:26:25;16.60;99.90
34766;DHT22;20984;43.508;1.504;2023-04-19T09:28:57;16.50;99.90
34766;DHT22;20984;43.508;1.504;2023-04-19T09:31:24;16.50;99.90
34766;DHT22;20984;43.508;1.504;2023-04-19T09:33:53;16.60;99.90
34766;DHT22;20984;43.508;1.504;2023-04-19T09:36:33;16.70;99.90
34766;DHT22;20984;43.508;1.504;2023-04-19T09:38:59;16.70;99.90
34766;DHT22;20984;43.508;1.504;2023-04-19T09:41:25;16.80;99.90
34766;DHT22;20984;43.508;1.504;2023-04-19T09:43:51;16.90;99.90
34766;DHT22;20984;43.508;1.504;2023-04-19T09:46:34;16.90;99.90
34766;DHT22;20984;43.508;1.504;2023-04-19T09:49:16;17.00;99.90
34766;DHT22;20984;43.508;1.504;2023-04-19T09:51:49;17.10;99.90
34766;DHT22;20984;43.508;1.504;2023-04-19T09:54:17;17.10;99.90
34766;DHT22;20984;43.508;1.504;2023-04-19T09:56:44;17.20;99.90
34766;DHT22;20984;43.508;1.504;2023-04-19T09:59:10;17.30;99.90
34766;DHT22;20984;43.508;1.504;2023-04-19T10:01:51;17.20;99.90
34766;DHT22;20984;43.508;1.504;2023-04-19T10:04:19;17.30;99.90
34766;DHT22;20984;43.508;1.504;2023-04-19T10:06:52;17.40;99.90
34766;DHT22;20984;43.508;1.504;2023-04-19T10:09:22;17.40;99.90
34766;DHT22;20984;43.508;1.504;2023-04-19T10:11:52;17.50;99.90
34766;DHT22;20984;43.508;1.504;2023-04-19T10:14:22;17.60;99.90
34766;DHT22;20984;43.508;1.504;2023-04-19T10:16:51;17.60;99.90
34766;DHT22;20984;43.508;1.504;2023-04-19T10:19:19;17.60;99.90
34766;DHT22;20984;43.508;1.504;2023-04-19T10:21:47;17.70;99.90
34766;DHT22;20984;43.508;1.504;2023-04-19T10:24:14;17.80;99.90
34766;DHT22;20984;43.508;1.504;2023-04-19T10:27:16;17.90;99.90
34766;DHT22;20984;43.508;1.504;2023-04-19T10:32:26;18.20;99.90
34766;DHT22;20984;43.508;1.504;2023-04-19T10:34:52;18.20;99.90
34766;DHT22;20984;43.508;1.504;2023-04-19T10:37:23;18.30;99.90
34766;DHT22;20984;43.508;1.504;2023-04-19T10:39:49;18.40;99.90
34766;DHT22;20984;43.508;1.504;2023-04-19T10:42:15;18.50;99.90
34766;DHT22;20984;43.508;1.504;2023-04-19T10:44:41;18.50;99.90
34766;DHT22;20984;43.508;1.504;2023-04-19T10:47:40;18.40;99.90
34766;DHT22;20984;43.508;1.504;2023-04-19T10:50:06;18.40;99.90
34766;DHT22;20984;43.508;1.504;2023-04-19T10:52:32;18.40;99.90
34766;DHT22;20984;43.508;1.504;2023-04-19T10:55:03;18.50;99.90
34766;DHT22;20984;43.508;1.504;2023-04-19T10:58:04;18.60;99.90
34766;DHT22;20984;43.508;1.504;2023-04-19T11:00:30;18.80;99.90
34766;DHT22;20984;43.508;1.504;2023-04-19T11:06:17;18.90;99.90
34766;DHT22;20984;43.508;1.504;2023-04-19T11:08:44;18.90;99.90
34766;DHT22;20984;43.508;1.504;2023-04-19T11:11:12;19.00;99.90
34766;DHT22;20984;43.508;1.504;2023-04-19T11:13:41;19.00;99.90
34766;DHT22;20984;43.508;1.504;2023-04-19T11:16:08;19.10;99.90
34766;DHT22;20984;43.508;1.504;2023-04-19T11:18:33;19.10;99.90
34766;DHT22;20984;43.508;1.504;2023-04-19T11:21:12;19.30;99.90
34766;DHT22;20984;43.508;1.504;2023-04-19T11:23:39;19.40;99.90
34766;DHT22;20984;43.508;1.504;2023-04-19T11:26:09;19.50;99.90
34766;DHT22;20984;43.508;1.504;2023-04-19T11:28:36;19.60;99.90
34766;DHT22;20984;43.508;1.504;2023-04-19T11:31:02;19.60;99.90
34766;DHT22;20984;43.508;1.504;2023-04-19T11:33:32;19.60;99.90
34766;DHT22;20984;43.508;1.504;2023-04-19T11:35:58;19.60;99.90
34766;DHT22;20984;43.508;1.504;2023-04-19T11:38:26;19.70;99.90
34766;DHT22;20984;43.508;1.504;2023-04-19T11:41:02;19.80;99.90
34766;DHT22;20984;43.508;1.504;2023-04-19T11:43:33;19.80;99.90
34766;DHT22;20984;43.508;1.504;2023-04-19T11:46:09;20.00;99.90
34766;DHT22;20984;43.508;1.504;2023-04-19T11:48:36;20.00;99.90
34766;DHT22;20984;43.508;1.504;2023-04-19T11:51:02;19.90;99.90
34766;DHT22;20984;43.508;1.504;2023-04-19T11:53:30;20.00;99.90
34766;DHT22;20984;43.508;1.504;2023-04-19T11:56:03;20.10;99.90
34766;DHT22;20984;43.508;1.504;2023-04-19T11:58:29;20.20;99.90
34766;DHT22;20984;43.508;1.504;2023-04-19T12:01:11;20.20;99.70
34766;DHT22;20984;43.508;1.504;2023-04-19T12:03:54;20.40;99.90
34766;DHT22;20984;43.508;1.504;2023-04-19T12:06:25;20.60;99.90
34766;DHT22;20984;43.508;1.504;2023-04-19T12:08:53;20.60;98.70
34766;DHT22;20984;43.508;1.504;2023-04-19T12:11:23;20.60;97.80
34766;DHT22;20984;43.508;1.504;2023-04-19T12:14:11;20.70;98.70
34766;DHT22;20984;43.508;1.504;2023-04-19T12:16:37;20.60;97.60
34766;DHT22;20984;43.508;1.504;2023-04-19T12:19:12;20.50;95.50
34766;DHT22;20984;43.508;1.504;2023-04-19T12:21:38;20.40;96.10
34766;DHT22;20984;43.508;1.504;2023-04-19T12:24:04;20.50;95.50
34766;DHT22;20984;43.508;1.504;2023-04-19T12:26:30;20.70;94.80
34766;DHT22;20984;43.508;1.504;2023-04-19T12:28:58;20.80;96.90
34766;DHT22;20984;43.508;1.504;2023-04-19T12:31:24;21.00;95.90
34766;DHT22;20984;43.508;1.504;2023-04-19T12:33:50;21.10;95.90
34766;DHT22;20984;43.508;1.504;2023-04-19T12:36:16;21.10;94.70
34766;DHT22;20984;43.508;1.504;2023-04-19T12:38:41;21.10;96.20
34766;DHT22;20984;43.508;1.504;2023-04-19T12:41:07;21.20;94.80
34766;DHT22;20984;43.508;1.504;2023-04-19T12:43:33;21.20;94.20
34766;DHT22;20984;43.508;1.504;2023-04-19T12:45:59;21.20;92.80
34766;DHT22;20984;43.508;1.504;2023-04-19T12:48:25;21.20;91.90
34766;DHT22;20984;43.508;1.504;2023-04-19T12:50:51;21.20;92.60
34766;DHT22;20984;43.508;1.504;2023-04-19T12:53:17;21.20;91.10
34766;DHT22;20984;43.508;1.504;2023-04-19T12:55:43;21.30;90.50
34766;DHT22;20984;43.508;1.504;2023-04-19T12:58:15;21.50;90.80
34766;DHT22;20984;43.508;1.504;2023-04-19T13:00:41;21.50;90.60
34766;DHT22;20984;43.508;1.504;2023-04-19T13:03:07;21.60;87.80
34766;DHT22;20984;43.508;1.504;2023-04-19T13:05:32;21.40;87.20
34766;DHT22;20984;43.508;1.504;2023-04-19T13:07:58;21.40;90.60
34766;DHT22;20984;43.508;1.504;2023-04-19T13:10:24;21.50;91.80
34766;DHT22;20984;43.508;1.504;2023-04-19T13:12:50;21.60;90.30
34766;DHT22;20984;43.508;1.504;2023-04-19T13:15:16;21.60;87.30
34766;DHT22;20984;43.508;1.504;2023-04-19T13:17:42;21.60;86.00
34766;DHT22;20984;43.508;1.504;2023-04-19T13:20:08;21.60;82.40
34766;DHT22;20984;43.508;1.504;2023-04-19T13:22:34;21.50;82.20
34766;DHT22;20984;43.508;1.504;2023-04-19T13:24:59;21.70;81.80
34766;DHT22;20984;43.508;1.504;2023-04-19T13:27:25;21.70;81.80
34766;DHT22;20984;43.508;1.504;2023-04-19T13:29:52;21.90;78.30
34766;DHT22;20984;43.508;1.504;2023-04-19T13:32:18;21.90;74.00
34766;DHT22;20984;43.508;1.504;2023-04-19T13:34:43;22.10;76.40
34766;DHT22;20984;43.508;1.504;2023-04-19T13:37:10;22.30;81.20
34766;DHT22;20984;43.508;1.504;2023-04-19T13:39:36;22.40;82.60
34766;DHT22;20984;43.508;1.504;2023-04-19T13:42:01;22.50;79.00
34766;DHT22;20984;43.508;1.504;2023-04-19T13:44:27;22.70;82.70
34766;DHT22;20984;43.508;1.504;2023-04-19T13:46:53;22.80;79.30
34766;DHT22;20984;43.508;1.504;2023-04-19T13:49:19;22.80;79.60
34766;DHT22;20984;43.508;1.504;2023-04-19T13:51:45;22.70;74.90
34766;DHT22;20984;43.508;1.504;2023-04-19T13:54:11;22.50;75.20
34766;DHT22;20984;43.508;1.504;2023-04-19T13:56:36;22.40;78.90
34766;DHT22;20984;43.508;1.504;2023-04-19T13:59:02;22.70;77.50
34766;DHT22;20984;43.508;1.504;2023-04-19T14:01:28;22.80;82.00
34766;DHT22;20984;43.508;1.504;2023-04-19T14:03:53;22.70;74.50
34766;DHT22;20984;43.508;1.504;2023-04-19T14:06:19;22.60;73.00
34766;DHT22;20984;43.508;1.504;2023-04-19T14:08:45;22.50;71.90
34766;DHT22;20984;43.508;1.504;2023-04-19T14:11:11;22.80;80.60
34766;DHT22;20984;43.508;1.504;2023-04-19T14:13:36;23.10;73.00
34766;DHT22;20984;43.508;1.504;2023-04-19T14:16:03;23.40;80.10
34766;DHT22;20984;43.508;1.504;2023-04-19T14:18:29;23.40;72.00
34766;DHT22;20984;43.508;1.504;2023-04-19T14:20:55;23.50;71.50
34766;DHT22;20984;43.508;1.504;2023-04-19T14:23:20;23.50;72.90
34766;DHT22;20984;43.508;1.504;2023-04-19T14:25:46;23.60;69.00
34766;DHT22;20984;43.508;1.504;2023-04-19T14:28:12;23.80;69.10
34766;DHT22;20984;43.508;1.504;2023-04-19T14:30:38;23.90;73.70
34766;DHT22;20984;43.508;1.504;2023-04-19T14:33:04;24.00;73.10
34766;DHT22;20984;43.508;1.504;2023-04-19T14:35:30;24.40;73.50
34766;DHT22;20984;43.508;1.504;2023-04-19T14:37:55;24.40;67.60
34766;DHT22;20984;43.508;1.504;2023-04-19T14:40:22;24.60;72.90
34766;DHT22;20984;43.508;1.504;2023-04-19T14:42:48;24.80;71.70
34766;DHT22;20984;43.508;1.504;2023-04-19T14:45:13;25.00;68.10
34766;DHT22;20984;43.508;1.504;2023-04-19T14:47:39;24.80;66.50
34766;DHT22;20984;43.508;1.504;2023-04-19T14:50:05;24.60;66.40
34766;DHT22;20984;43.508;1.504;2023-04-19T14:52:31;24.10;65.10
34766;DHT22;20984;43.508;1.504;2023-04-19T14:54:56;23.90;72.50
34766;DHT22;20984;43.508;1.504;2023-04-19T14:57:24;23.90;66.20
34766;DHT22;20984;43.508;1.504;2023-04-19T14:59:53;23.90;68.40
34766;DHT22;20984;43.508;1.504;2023-04-19T15:02:22;24.10;74.60
34766;DHT22;20984;43.508;1.504;2023-04-19T15:04:49;24.50;68.40
34766;DHT22;20984;43.508;1.504;2023-04-19T15:07:15;24.70;73.00
34766;DHT22;20984;43.508;1.504;2023-04-19T15:09:40;25.30;67.30
34766;DHT22;20984;43.508;1.504;2023-04-19T15:12:06;25.50;67.40
34766;DHT22;20984;43.508;1.504;2023-04-19T15:14:32;25.00;66.10
34766;DHT22;20984;43.508;1.504;2023-04-19T15:16:57;24.80;69.70
34766;DHT22;20984;43.508;1.504;2023-04-19T15:19:23;24.40;66.00
34766;DHT22;20984;43.508;1.504;2023-04-19T15:21:49;24.20;72.60
34766;DHT22;20984;43.508;1.504;2023-04-19T15:24:14;23.90;66.40
34766;DHT22;20984;43.508;1.504;2023-04-19T15:26:40;23.50;67.90
34766;DHT22;20984;43.508;1.504;2023-04-19T15:29:06;23.40;72.00
34766;DHT22;20984;43.508;1.504;2023-04-19T15:31:31;23.10;68.20
34766;DHT22;20984;43.508;1.504;2023-04-19T15:34:00;22.80;70.20
34766;DHT22;20984;43.508;1.504;2023-04-19T15:36:27;22.60;74.10
34766;DHT22;20984;43.508;1.504;2023-04-19T15:38:53;22.60;71.20
34766;DHT22;20984;43.508;1.504;2023-04-19T15:41:18;22.90;67.70